createdAt,value
2018-07-07T00:01:28.005Z,101174.30
2018-07-07T00:04:02.218Z,101177.23
2018-07-07T00:06:35.645Z,101173.31
2018-07-07T00:09:09.088Z,101175.74
2018-07-07T00:11:42.468Z,101177.17
2018-07-07T00:14:15.896Z,101181.58
2018-07-07T00:16:49.264Z,101185.35
2018-07-07T00:19:22.697Z,101185.80
2018-07-07T00:21:56.063Z,101181.71
2018-07-07T00:24:29.472Z,101183.13
2018-07-07T00:27:02.836Z,101188.22
2018-07-07T00:29:37.116Z,101186.17
2018-07-07T00:32:10.599Z,101191.44
2018-07-07T00:34:43.998Z,101193.95
2018-07-07T00:37:17.375Z,101197.47
2018-07-07T00:39:50.787Z,101194.11
2018-07-07T00:42:24.162Z,101197.59
2018-07-07T00:44:57.606Z,101193.11
2018-07-07T00:47:31.031Z,101191.05
2018-07-07T00:50:04.829Z,101196.53
2018-07-07T00:52:38.206Z,101192.66
2018-07-07T00:55:11.604Z,101193.65
2018-07-07T00:57:45.024Z,101188.06
2018-07-07T01:00:18.415Z,101191.22
2018-07-07T01:02:51.767Z,101185.13
2018-07-07T01:05:35.017Z,101189.87
2018-07-07T01:08:08.383Z,101186.92
2018-07-07T01:10:41.795Z,101184.21
2018-07-07T01:13:15.703Z,101184.21
2018-07-07T01:15:49.110Z,101191.89
2018-07-07T01:18:22.490Z,101182.06
2018-07-07T01:20:55.869Z,101185.13
2018-07-07T01:23:29.222Z,101183.69
2018-07-07T01:26:02.632Z,101185.39
2018-07-07T01:28:36.027Z,101182.72
2018-07-07T01:31:09.999Z,101185.73
2018-07-07T01:33:43.394Z,101182.83
2018-07-07T01:36:16.791Z,101179.83
2018-07-07T01:38:50.148Z,101182.53
2018-07-07T01:41:23.576Z,101181.77
2018-07-07T01:43:56.972Z,101184.36
2018-07-07T01:46:30.378Z,101180.70
2018-07-07T01:49:03.806Z,101178.73
2018-07-07T01:51:37.195Z,101180.06
2018-07-07T01:54:10.621Z,101179.49
2018-07-07T01:56:44.035Z,101179.09
2018-07-07T01:59:17.436Z,101180.36
2018-07-07T02:01:50.904Z,101181.65
2018-07-07T02:04:24.349Z,101180.36
2018-07-07T02:06:58.592Z,101185.05
2018-07-07T02:09:32.036Z,101174.41
2018-07-07T02:12:06.277Z,101182.16
2018-07-07T02:14:39.655Z,101185.77
2018-07-07T02:17:13.044Z,101183.97
2018-07-07T02:19:46.440Z,101185.34
2018-07-07T02:22:22.742Z,101188.92
2018-07-07T02:24:56.131Z,101197.28
2018-07-07T02:27:29.494Z,101189.17
2018-07-07T02:30:02.892Z,101184.48
2018-07-07T02:32:36.344Z,101187.59
2018-07-07T02:35:09.737Z,101188.05
2018-07-07T02:37:43.119Z,101190.16
2018-07-07T02:40:16.547Z,101194.02
2018-07-07T02:42:49.954Z,101191.05
2018-07-07T02:45:23.461Z,101192.01
2018-07-07T02:47:56.812Z,101190.30
2018-07-07T02:50:30.243Z,101196.32
2018-07-07T02:53:03.611Z,101199.01
2018-07-07T02:55:37.006Z,101197.74
2018-07-07T02:58:10.372Z,101205.94
2018-07-07T03:00:43.785Z,101202.86
2018-07-07T03:03:17.189Z,101206.66
2018-07-07T03:05:50.655Z,101204.08
2018-07-07T03:08:24.045Z,101210.52
2018-07-07T03:10:57.520Z,101206.72
2018-07-07T03:13:30.952Z,101210.23
2018-07-07T03:16:04.358Z,101208.88
2018-07-07T03:18:37.747Z,101205.28
2018-07-07T03:21:11.158Z,101204.72
2018-07-07T03:23:44.532Z,101215.95
2018-07-07T03:26:18.160Z,101214.52
2018-07-07T03:28:51.527Z,101216.05
2018-07-07T03:31:24.913Z,101209.55
2018-07-07T03:33:58.315Z,101214.89
2018-07-07T03:36:31.743Z,101213.84
2018-07-07T03:39:06.563Z,101214.58
2018-07-07T03:41:39.939Z,101221.34
2018-07-07T03:44:13.318Z,101216.10
2018-07-07T03:46:46.734Z,101218.09
2018-07-07T03:49:20.156Z,101221.81
2018-07-07T03:51:53.521Z,101219.08
2018-07-07T03:54:26.931Z,101220.34
2018-07-07T03:57:00.392Z,101221.04
2018-07-07T03:59:33.772Z,101225.94
2018-07-07T04:02:08.906Z,101216.44
2018-07-07T04:04:42.284Z,101220.27
2018-07-07T04:07:15.756Z,101221.95
2018-07-07T04:09:49.206Z,101226.30
2018-07-07T04:12:22.664Z,101222.83
2018-07-07T04:14:56.032Z,101220.55
2018-07-07T04:17:29.436Z,101227.92
2018-07-07T04:20:02.807Z,101231.48
2018-07-07T04:22:36.219Z,101238.07
2018-07-07T04:25:09.604Z,101236.19
2018-07-07T04:27:43.023Z,101230.56
2018-07-07T04:30:16.405Z,101238.13
2018-07-07T04:32:49.870Z,101235.04
2018-07-07T04:35:23.232Z,101240.14
2018-07-07T04:37:56.634Z,101236.67
2018-07-07T04:40:30.004Z,101232.19
2018-07-07T04:43:03.407Z,101233.47
2018-07-07T04:45:36.837Z,101228.79
2018-07-07T04:48:10.280Z,101218.72
2018-07-07T04:50:43.703Z,101220.64
2018-07-07T04:53:17.122Z,101226.95
2018-07-07T04:55:50.497Z,101218.80
2018-07-07T04:58:24.791Z,101224.63
2018-07-07T05:00:58.211Z,101220.41
2018-07-07T05:03:31.632Z,101231.48
2018-07-07T05:06:05.809Z,101233.83
2018-07-07T05:08:39.218Z,101234.98
2018-07-07T05:11:12.597Z,101232.06
2018-07-07T05:13:46.067Z,101229.94
2018-07-07T05:16:19.505Z,101233.69
2018-07-07T05:18:52.899Z,101226.48
2018-07-07T05:21:26.272Z,101229.87
2018-07-07T05:23:59.680Z,101229.63
2018-07-07T05:26:33.032Z,101239.31
2018-07-07T05:29:06.420Z,101228.27
2018-07-07T05:31:39.845Z,101238.03
2018-07-07T05:34:13.258Z,101233.56
2018-07-07T05:36:46.649Z,101237.20
2018-07-07T05:39:20.037Z,101237.03
2018-07-07T05:41:53.916Z,101236.87
2018-07-07T05:44:27.293Z,101235.30
2018-07-07T05:47:00.640Z,101242.34
2018-07-07T05:49:34.034Z,101247.33
2018-07-07T05:52:07.419Z,101242.58
2018-07-07T05:54:40.822Z,101248.20
2018-07-07T05:57:14.212Z,101246.48
2018-07-07T05:59:47.634Z,101255.87
2018-07-07T06:02:21.047Z,101250.16
2018-07-07T06:04:54.507Z,101249.64
2018-07-07T06:07:27.910Z,101245.44
2018-07-07T06:10:01.322Z,101236.87
2018-07-07T06:12:34.823Z,101248.94
2018-07-07T06:15:08.847Z,101249.84
2018-07-07T06:17:42.289Z,101243.73
2018-07-07T06:20:15.648Z,101243.06
2018-07-07T06:22:49.032Z,101249.94
2018-07-07T06:25:22.371Z,101246.28
2018-07-07T06:27:55.788Z,101248.94
2018-07-07T06:30:29.150Z,101244.30
2018-07-07T06:33:02.547Z,101251.84
2018-07-07T06:35:35.949Z,101248.92
2018-07-07T06:38:09.337Z,101244.87
2018-07-07T06:40:42.690Z,101251.86
2018-07-07T06:43:16.173Z,101252.81
2018-07-07T06:45:49.552Z,101256.33
2018-07-07T06:48:22.942Z,101255.60
2018-07-07T06:50:56.361Z,101251.66
2018-07-07T06:53:29.759Z,101254.41
2018-07-07T06:56:03.133Z,101255.88
2018-07-07T06:58:36.554Z,101261.55
2018-07-07T07:01:09.915Z,101262.69
2018-07-07T07:03:43.419Z,101263.58
2018-07-07T07:06:16.813Z,101261.58
2018-07-07T07:08:50.202Z,101259.86
2018-07-07T07:11:23.562Z,101261.87
2018-07-07T07:13:57.006Z,101260.67
2018-07-07T07:16:30.361Z,101255.30
2018-07-07T07:19:04.474Z,101272.20
2018-07-07T07:21:38.108Z,101260.40
2018-07-07T07:24:11.481Z,101258.20
2018-07-07T07:26:44.884Z,101259.45
2018-07-07T07:29:18.408Z,101256.33
2018-07-07T07:31:51.779Z,101257.48
2018-07-07T07:34:25.226Z,101263.91
2018-07-07T07:36:58.695Z,101262.44
2018-07-07T07:39:32.104Z,101269.69
2018-07-07T07:42:05.514Z,101263.66
2018-07-07T07:44:38.915Z,101268.51
2018-07-07T07:47:12.285Z,101266.77
2018-07-07T07:49:45.686Z,101262.13
2018-07-07T07:52:19.034Z,101264.36
2018-07-07T07:54:52.514Z,101262.17
2018-07-07T07:57:25.861Z,101272.56
2018-07-07T08:00:00.056Z,101270.14
2018-07-07T08:02:33.495Z,101273.75
2018-07-07T08:05:07.064Z,101272.20
2018-07-07T08:07:40.424Z,101270.90
2018-07-07T08:10:13.868Z,101279.06
2018-07-07T08:12:47.269Z,101281.48
2018-07-07T08:15:20.654Z,101282.86
2018-07-07T08:17:54.023Z,101279.25
2018-07-07T08:20:27.420Z,101276.47
2018-07-07T08:23:00.999Z,101278.89
2018-07-07T08:25:34.364Z,101267.53
2018-07-07T08:28:07.808Z,101267.37
2018-07-07T08:30:41.208Z,101275.36
2018-07-07T08:33:14.632Z,101270.44
2018-07-07T08:35:48.039Z,101273.48
2018-07-07T08:38:21.417Z,101269.23
2018-07-07T08:40:54.797Z,101277.52
2018-07-07T08:43:28.147Z,101279.90
2018-07-07T08:46:01.622Z,101278.45
2018-07-07T08:48:35.000Z,101274.63
2018-07-07T08:51:08.409Z,101267.89
2018-07-07T08:53:41.781Z,101278.69
2018-07-07T08:56:15.186Z,101279.73
2018-07-07T08:58:48.592Z,101279.80
2018-07-07T09:01:21.983Z,101271.58
2018-07-07T09:03:55.370Z,101266.70
2018-07-07T09:06:28.780Z,101265.47
2018-07-07T09:09:02.163Z,101267.63
2018-07-07T09:11:35.578Z,101271.63
2018-07-07T09:14:09.005Z,101266.15
2018-07-07T09:16:42.468Z,101267.34
2018-07-07T09:19:15.833Z,101260.73
2018-07-07T09:21:49.248Z,101258.27
2018-07-07T09:24:22.665Z,101260.47
2018-07-07T09:26:56.120Z,101263.77
2018-07-07T09:29:29.501Z,101266.79
2018-07-07T09:32:02.937Z,101255.02
2018-07-07T09:34:36.314Z,101255.61
2018-07-07T09:37:09.704Z,101257.95
2018-07-07T09:39:43.105Z,101254.92
2018-07-07T09:42:16.542Z,101265.80
2018-07-07T09:44:49.975Z,101257.27
2018-07-07T09:47:23.341Z,101256.87
2018-07-07T09:49:56.723Z,101256.72
2018-07-07T09:52:30.095Z,101268.15
2018-07-07T09:55:03.507Z,101259.45
2018-07-07T09:57:36.993Z,101258.45
2018-07-07T10:00:16.599Z,101264.25
2018-07-07T10:02:50.008Z,101254.06
2018-07-07T10:05:25.340Z,101267.01
2018-07-07T10:07:58.714Z,101255.06
2018-07-07T10:10:32.131Z,101252.27
2018-07-07T10:13:06.361Z,101254.59
2018-07-07T10:15:39.738Z,101246.35
2018-07-07T10:18:13.112Z,101246.35
2018-07-07T10:20:46.632Z,101256.22
2018-07-07T10:23:19.954Z,101264.69
2018-07-07T10:25:53.331Z,101248.52
2018-07-07T10:28:26.799Z,101258.34
2018-07-07T10:31:00.259Z,101258.62
2018-07-07T10:33:33.679Z,101256.34
2018-07-07T10:36:08.193Z,101253.73
2018-07-07T10:38:41.584Z,101245.98
2018-07-07T10:41:15.048Z,101247.29
2018-07-07T10:43:48.431Z,101247.02
2018-07-07T10:46:21.951Z,101249.19
2018-07-07T10:48:55.379Z,101260.43
2018-07-07T10:51:28.759Z,101259.47
2018-07-07T10:54:02.154Z,101249.11
2018-07-07T10:56:35.592Z,101252.12
2018-07-07T10:59:08.976Z,101249.08
2018-07-07T11:01:42.406Z,101253.71
2018-07-07T11:04:16.047Z,101247.70
2018-07-07T11:06:49.793Z,101241.05
2018-07-07T11:09:23.265Z,101238.02
2018-07-07T11:11:56.781Z,101257.63
2018-07-07T11:14:30.187Z,101244.61
2018-07-07T11:17:03.663Z,101248.42
2018-07-07T11:19:37.023Z,101253.72
2018-07-07T11:22:10.609Z,101258.38
2018-07-07T11:24:44.128Z,101250.20
2018-07-07T11:27:17.559Z,101250.87
2018-07-07T11:29:50.980Z,101263.33
2018-07-07T11:32:24.346Z,101252.73
2018-07-07T11:34:57.703Z,101260.51
2018-07-07T11:37:31.101Z,101251.47
2018-07-07T11:40:04.878Z,101257.77
2018-07-07T11:42:38.316Z,101252.42
2018-07-07T11:45:11.707Z,101254.28
2018-07-07T11:47:45.142Z,101247.41
2018-07-07T11:50:18.687Z,101246.91
2018-07-07T11:52:51.994Z,101257.51
2018-07-07T11:55:25.496Z,101244.42
2018-07-07T11:57:58.893Z,101249.17
2018-07-07T12:00:32.349Z,101241.67
2018-07-07T12:03:05.914Z,101252.27
2018-07-07T12:05:39.285Z,101255.34
2018-07-07T12:08:13.992Z,101246.81
2018-07-07T12:10:46.259Z,101259.30
2018-07-07T12:13:19.671Z,101254.19
2018-07-07T12:15:53.589Z,101250.87
2018-07-07T12:18:26.991Z,101252.08
2018-07-07T12:21:00.386Z,101260.41
2018-07-07T12:23:33.755Z,101258.27
2018-07-07T12:26:07.148Z,101264.44
2018-07-07T12:28:40.582Z,101265.96
2018-07-07T12:31:13.968Z,101264.02
2018-07-07T12:33:47.380Z,101265.19
2018-07-07T12:36:20.827Z,101263.66
2018-07-07T12:38:54.461Z,101258.78
2018-07-07T12:41:27.837Z,101260.83
2018-07-07T12:44:01.321Z,101256.70
2018-07-07T12:46:34.772Z,101266.15
2018-07-07T12:49:08.610Z,101257.88
2018-07-07T12:51:42.322Z,101254.63
2018-07-07T12:54:16.145Z,101249.33
2018-07-07T12:56:49.644Z,101262.84
2018-07-07T12:59:23.893Z,101247.31
2018-07-07T13:01:58.420Z,101240.97
2018-07-07T13:04:31.840Z,101253.90
2018-07-07T13:07:05.741Z,101256.07
2018-07-07T13:09:39.106Z,101259.42
2018-07-07T13:12:12.506Z,101241.93
2018-07-07T13:14:45.934Z,101265.04
2018-07-07T13:17:19.395Z,101249.46
2018-07-07T13:19:53.348Z,101261.63
2018-07-07T13:22:26.852Z,101251.63
2018-07-07T13:25:00.304Z,101248.91
2018-07-07T13:27:34.033Z,101240.97
2018-07-07T13:30:08.178Z,101251.31
2018-07-07T13:32:41.596Z,101250.47
2018-07-07T13:35:15.029Z,101255.33
2018-07-07T13:37:48.456Z,101249.99
2018-07-07T13:40:21.938Z,101243.44
2018-07-07T13:43:00.606Z,101250.02
2018-07-07T13:45:34.079Z,101251.15
2018-07-07T13:48:07.486Z,101251.63
2018-07-07T13:50:40.904Z,101253.64
2018-07-07T13:53:16.459Z,101251.13
2018-07-07T13:55:49.904Z,101224.05
2018-07-07T13:58:23.387Z,101255.68
2018-07-07T14:00:57.597Z,101254.59
2018-07-07T14:03:31.022Z,101254.02
2018-07-07T14:06:04.896Z,101246.03
2018-07-07T14:08:38.346Z,101247.13
2018-07-07T14:11:11.918Z,101238.44
2018-07-07T14:13:45.356Z,101233.98
2018-07-07T14:16:19.128Z,101238.86
2018-07-07T14:18:52.848Z,101243.55
2018-07-07T14:21:26.450Z,101242.72
2018-07-07T14:23:59.981Z,101239.52
2018-07-07T14:26:33.496Z,101255.48
2018-07-07T14:29:06.947Z,101255.58
2018-07-07T14:31:40.365Z,101253.90
2018-07-07T14:34:13.783Z,101249.46
2018-07-07T14:36:47.211Z,101246.75
2018-07-07T14:39:20.603Z,101246.46
2018-07-07T14:42:02.815Z,101248.77
2018-07-07T14:44:36.334Z,101244.80
2018-07-07T14:47:09.712Z,101251.57
2018-07-07T14:49:43.456Z,101252.14
2018-07-07T14:52:16.842Z,101259.52
2018-07-07T14:54:50.297Z,101239.98
2018-07-07T14:57:23.709Z,101250.23
2018-07-07T14:59:57.139Z,101241.67
2018-07-07T15:02:30.583Z,101247.20
2018-07-07T15:05:04.749Z,101248.63
2018-07-07T15:07:38.130Z,101245.12
2018-07-07T15:10:12.464Z,101241.96
2018-07-07T15:12:46.871Z,101246.02
2018-07-07T15:15:20.290Z,101242.91
2018-07-07T15:17:53.688Z,101247.00
2018-07-07T15:20:27.121Z,101246.36
2018-07-07T15:23:00.546Z,101244.84
2018-07-07T15:25:33.986Z,101241.66
2018-07-07T15:28:07.379Z,101246.02
2018-07-07T15:30:40.916Z,101242.48
2018-07-07T15:33:14.278Z,101254.08
2018-07-07T15:35:47.959Z,101257.52
2018-07-07T15:38:21.376Z,101255.60
2018-07-07T15:40:54.753Z,101248.13
2018-07-07T15:43:28.134Z,101246.97
2018-07-07T15:46:01.594Z,101247.23
2018-07-07T15:48:35.092Z,101247.70
2018-07-07T15:51:08.500Z,101244.06
2018-07-07T15:53:41.875Z,101245.80
2018-07-07T15:56:15.294Z,101240.38
2018-07-07T15:58:48.735Z,101242.47
2018-07-07T16:01:31.966Z,101238.77
2018-07-07T16:04:05.448Z,101236.38
2018-07-07T16:06:38.843Z,101232.55
2018-07-07T16:09:12.230Z,101232.48
2018-07-07T16:11:45.962Z,101229.66
2018-07-07T16:14:19.460Z,101234.75
2018-07-07T16:16:52.831Z,101236.38
2018-07-07T16:19:26.325Z,101236.77
2018-07-07T16:21:59.798Z,101242.63
2018-07-07T16:24:33.254Z,101228.94
2018-07-07T16:27:07.009Z,101234.56
2018-07-07T16:29:40.391Z,101233.12
2018-07-07T16:32:13.789Z,101227.20
2018-07-07T16:34:47.291Z,101228.95
2018-07-07T16:37:20.695Z,101225.12
2018-07-07T16:39:54.175Z,101221.67
2018-07-07T16:42:27.571Z,101223.69
2018-07-07T16:45:01.096Z,101231.88
2018-07-07T16:47:35.123Z,101231.68
2018-07-07T16:50:08.538Z,101224.70
2018-07-07T16:52:41.968Z,101225.48
2018-07-07T16:55:15.456Z,101230.17
2018-07-07T16:57:48.953Z,101220.58
2018-07-07T17:00:22.443Z,101220.26
2018-07-07T17:02:56.047Z,101221.64
2018-07-07T17:05:29.568Z,101223.45
2018-07-07T17:08:03.095Z,101227.27
2018-07-07T17:10:36.528Z,101224.98
2018-07-07T17:13:09.996Z,101229.73
2018-07-07T17:15:43.471Z,101238.14
2018-07-07T17:18:16.916Z,101233.72
2018-07-07T17:20:50.383Z,101230.59
2018-07-07T17:23:46.277Z,101234.78
2018-07-07T17:26:36.550Z,101238.33
2018-07-07T17:32:17.047Z,101243.37
2018-07-07T17:35:02.144Z,101241.80
2018-07-07T17:37:36.015Z,101237.55
2018-07-07T17:40:09.463Z,101235.12
2018-07-07T17:42:43.052Z,101239.47
2018-07-07T17:45:16.947Z,101243.41
2018-07-07T17:47:51.569Z,101237.11
2018-07-07T17:50:25.531Z,101232.03
2018-07-07T17:52:59.940Z,101232.47
2018-07-07T17:55:34.234Z,101234.95
2018-07-07T17:58:08.395Z,101242.50
2018-07-07T18:00:44.528Z,101243.27
2018-07-07T18:03:19.067Z,101249.20
2018-07-07T18:05:53.646Z,101237.97
2018-07-07T18:08:38.400Z,101243.76
2018-07-07T18:11:12.614Z,101249.84
2018-07-07T18:13:46.947Z,101244.82
2018-07-07T18:16:23.418Z,101247.52
2018-07-07T18:18:57.475Z,101244.45
2018-07-07T18:21:31.628Z,101257.27
2018-07-07T18:24:05.820Z,101243.14
2018-07-07T18:26:41.921Z,101260.39
2018-07-07T18:29:18.575Z,101243.83
2018-07-07T18:32:01.122Z,101253.87
2018-07-07T18:34:42.699Z,101252.44
2018-07-07T18:37:21.764Z,101251.03
2018-07-07T18:39:55.248Z,101252.03
2018-07-07T18:42:28.690Z,101255.27
2018-07-07T18:45:02.109Z,101252.50
2018-07-07T18:47:35.520Z,101254.37
2018-07-07T18:50:08.935Z,101255.41
2018-07-07T18:52:42.359Z,101251.94
2018-07-07T18:55:15.777Z,101258.16
2018-07-07T18:57:49.184Z,101253.86
2018-07-07T19:00:22.549Z,101261.81
2018-07-07T19:02:55.946Z,101257.84
2018-07-07T19:05:29.320Z,101259.72
2018-07-07T19:08:02.719Z,101256.91
2018-07-07T19:10:36.111Z,101256.77
2018-07-07T19:13:09.538Z,101262.47
2018-07-07T19:15:46.145Z,101268.80
2018-07-07T19:18:19.578Z,101263.36
2018-07-07T19:20:58.477Z,101264.61
2018-07-07T19:23:37.050Z,101267.08
2018-07-07T19:26:15.712Z,101264.33
2018-07-07T19:28:49.140Z,101263.06
2018-07-07T19:31:22.537Z,101267.17
2018-07-07T19:34:01.339Z,101269.55
2018-07-07T19:37:39.955Z,101274.82
2018-07-07T19:40:13.407Z,101273.91
2018-07-07T19:42:49.206Z,101284.95
2018-07-07T19:45:22.580Z,101285.48
2018-07-07T19:47:55.974Z,101288.77
2018-07-07T19:50:29.368Z,101287.38
2018-07-07T19:53:02.778Z,101290.12
2018-07-07T19:55:36.149Z,101288.97
2018-07-07T19:58:09.548Z,101289.66
2018-07-07T20:00:42.938Z,101284.16
2018-07-07T20:03:16.357Z,101291.57
2018-07-07T20:05:49.739Z,101287.96
2018-07-07T20:08:23.186Z,101298.78
2018-07-07T20:10:57.437Z,101290.69
2018-07-07T20:13:30.968Z,101291.98
2018-07-07T20:16:13.663Z,101296.80
2018-07-07T20:19:16.318Z,101295.59
2018-07-07T20:21:51.974Z,101290.69
2018-07-07T20:24:38.749Z,101293.56
2018-07-07T20:27:17.402Z,101282.45
2018-07-07T20:29:50.855Z,101285.20
2018-07-07T20:32:29.465Z,101287.39
2018-07-07T20:35:02.937Z,101290.11
2018-07-07T20:37:36.342Z,101288.50
2018-07-07T20:40:09.787Z,101292.73
2018-07-07T20:42:43.214Z,101297.54
2018-07-07T20:45:16.627Z,101290.41
2018-07-07T20:47:50.113Z,101293.92
2018-07-07T20:50:23.719Z,101292.50
2018-07-07T20:52:57.095Z,101303.81
2018-07-07T20:55:30.570Z,101306.28
2018-07-07T20:58:03.993Z,101302.73
2018-07-07T21:00:37.387Z,101304.15
2018-07-07T21:03:11.312Z,101307.63
2018-07-07T21:05:45.392Z,101305.08
2018-07-07T21:08:19.044Z,101309.73
2018-07-07T21:10:52.834Z,101317.05
2018-07-07T21:13:27.784Z,101311.83
2018-07-07T21:16:01.587Z,101315.63
2018-07-07T21:18:34.963Z,101320.92
2018-07-07T21:21:08.369Z,101322.20
2018-07-07T21:23:41.855Z,101319.72
2018-07-07T21:26:17.992Z,101318.05
2018-07-07T21:28:51.525Z,101316.38
2018-07-07T21:31:25.631Z,101302.53
2018-07-07T21:33:59.064Z,101303.64
2018-07-07T21:36:32.461Z,101306.82
2018-07-07T21:39:06.735Z,101313.83
2018-07-07T21:41:40.154Z,101301.43
2018-07-07T21:44:13.555Z,101307.48
2018-07-07T21:46:47.059Z,101306.71
2018-07-07T21:49:20.500Z,101314.23
2018-07-07T21:51:53.911Z,101310.59
2018-07-07T21:54:27.325Z,101317.27
2018-07-07T21:57:00.746Z,101317.42
2018-07-07T21:59:34.174Z,101318.30
2018-07-07T22:02:12.806Z,101323.47
2018-07-07T22:04:51.526Z,101324.12
2018-07-07T22:07:30.169Z,101313.78
2018-07-07T22:10:03.611Z,101313.73
2018-07-07T22:12:37.135Z,101319.20
2018-07-07T22:15:10.638Z,101316.56
2018-07-07T22:17:44.046Z,101314.88
2018-07-07T22:20:27.504Z,101307.06
2018-07-07T22:23:00.904Z,101308.36
2018-07-07T22:25:34.332Z,101307.63
2018-07-07T22:28:07.805Z,101301.06
2018-07-07T22:30:41.240Z,101305.38
2018-07-07T22:33:20.355Z,101297.80
2018-07-07T22:35:59.201Z,101296.48
2018-07-07T22:38:38.017Z,101297.70
2018-07-07T22:41:11.465Z,101293.73
2018-07-07T22:43:44.855Z,101291.81
2018-07-07T22:46:18.300Z,101294.70
2018-07-07T22:48:52.085Z,101289.38
2018-07-07T22:51:25.491Z,101290.63
2018-07-07T22:53:58.880Z,101280.86
2018-07-07T22:56:33.142Z,101279.47
2018-07-07T22:59:06.535Z,101282.53
2018-07-07T23:01:39.984Z,101282.53
2018-07-07T23:04:13.381Z,101290.83
2018-07-07T23:06:47.251Z,101287.55
2018-07-07T23:09:20.679Z,101288.84
2018-07-07T23:11:54.942Z,101288.08
2018-07-07T23:14:28.404Z,101285.14
2018-07-07T23:17:02.763Z,101290.86
2018-07-07T23:19:36.250Z,101288.94
2018-07-07T23:22:09.661Z,101285.52
2018-07-07T23:24:43.185Z,101296.91
2018-07-07T23:27:16.622Z,101293.14
2018-07-07T23:29:50.051Z,101293.53
2018-07-07T23:32:23.535Z,101294.92
2018-07-07T23:34:56.935Z,101295.78
2018-07-07T23:37:36.849Z,101297.11
2018-07-07T23:40:10.683Z,101295.24
2018-07-07T23:42:44.131Z,101288.89
2018-07-07T23:45:17.528Z,101291.50
2018-07-07T23:47:50.959Z,101293.77
2018-07-07T23:50:24.370Z,101285.61
2018-07-07T23:52:57.827Z,101283.64
2018-07-07T23:55:31.204Z,101282.84
2018-07-07T23:58:04.645Z,101282.23
